Etusivu
METAR-TAF:

METAR-TAF

Lentoasemat :

Kunming, Kiina

Kunming Changshuin kansainvälinen lentoasema

Leveyspiiri: 25-01N, Pituuspiiri: 102-41E, korkeus merenpinnasta: 1892 m

Tämänhetkinen sää

Tämä raportti tehtiin 53 minuuttia sitten, kello 15.00 UTC
Tuuli 12 kn lounaasta
Lämpötila 11°C
Kosteus 50%
Ilmanpaine 1020 hPa
Näkyvyys 10 km tai enemmän
ei pilviä alle 1500 m:ssä eikä cumulonimbus-pilviä

METAR: ZPPP 191500Z 22006MPS CAVOK 11/01 Q1020 NOSIG

Aika: 23:53 (15:53 UTC)

Sääennuste

Tämä raportti tehtiin 8 tuntia ja 44 minuuttia sitten, kello 07.09 UTC
Ennuste voimassa 19. päivästä klo 12 UTC - 20. päivään klo 12 UTC
Tuuli 12 kn lounaasta
Näkyvyys 10 km tai enemmän
ei pilviä alle 1500 m:ssä eikä cumulonimbus-pilviä
Tulossa
20. päivästä klo 03 UTC - 20. päivään klo 04 UTC
Tuuli 23 kn lounaasta puuskistuen 33 kn:hen

TAF: ZPPP 190709Z 1912/2012 22006MPS CAVOK TX21/2008Z TN06/1923Z BECMG 2003/2004 22012G17MPS

Säähavainnot ja -ennusteet yli 4000 lentoasemalta (METAR- ja TAF-raportit).

Käytössä olevat sääasemat on merkitty karttaan keltaisilla ja punaisilla pisteillä.

Aseta hiiri pisteen päälle nähdäksesi sääaseman nimen.

Klikkaa sitten nähdäksesi säähavainnot ja -ennusteet.

Kartan vaihtaminen: klikkaa mustalla rastilla varustettuja vihreitä pisteitä, niin voit zoomata sisään; viivalla varustettua vihreää pistettä, niin voit zoomata ulos tai vihreitä nuolia, niin pääset viereisille kartoille.


METAR-TAF: